Time;durP1;ratioP1;P1;durP2;ratioP2;P2;SDS_P1;SDS_P2;PMS_P1;PMS_P2;Temp;Humidity;BMP_temperature;BMP_pressure;BME280_temperature;BME280_humidity;BME280_pressure;Samples;Min_cycle;Max_cycle;Signal;HPM_P1;HPM_P2
2022/06/04 00:00:38;;;;;;;5.97;3.90;;;14.30;99.90;;;;;;6215664;23;20183;-81
2022/06/04 00:03:05;;;;;;;4.72;3.60;;;14.50;99.90;;;;;;6216219;23;20152;-81
2022/06/04 00:05:36;;;;;;;4.32;3.22;;;14.30;99.90;;;;;;6216250;23;20282;-82
2022/06/04 00:08:07;;;;;;;4.32;3.53;;;14.30;99.90;;;;;;6216363;23;20202;-81
2022/06/04 00:16:10;;;;;;;3.35;3.05;;;14.20;99.90;;;;;;6215948;23;20215;-81
2022/06/04 00:18:37;;;;;;;5.53;3.17;;;14.20;99.90;;;;;;6189341;23;20160;-81
2022/06/04 00:21:03;;;;;;;4.20;3.20;;;14.10;99.90;;;;;;6215977;23;20488;-81
2022/06/04 00:23:29;;;;;;;5.38;4.05;;;14.10;99.90;;;;;;6216082;23;20152;-81
2022/06/04 00:25:57;;;;;;;5.85;3.35;;;14.00;99.90;;;;;;6216257;23;20480;-81
2022/06/04 00:28:25;;;;;;;4.78;3.83;;;13.90;99.90;;;;;;6216326;23;20178;-85
2022/06/04 00:30:52;;;;;;;5.65;3.55;;;14.00;99.90;;;;;;6189895;23;20577;-81
2022/06/04 00:33:18;;;;;;;4.82;3.50;;;14.00;99.90;;;;;;6215829;23;20156;-80
2022/06/04 00:35:46;;;;;;;3.75;3.22;;;14.00;99.90;;;;;;6216076;23;20214;-81
2022/06/04 00:38:14;;;;;;;4.28;3.25;;;14.00;99.90;;;;;;6217457;23;20158;-81
2022/06/04 00:41:08;;;;;;;7.45;3.45;;;13.90;99.90;;;;;;6217067;23;20514;-81
2022/06/04 00:44:11;;;;;;;5.55;3.65;;;13.90;99.90;;;;;;6216986;23;20179;-81
2022/06/04 00:46:40;;;;;;;5.78;3.75;;;13.90;99.90;;;;;;6216586;23;20151;-81
2022/06/04 00:49:12;;;;;;;6.80;4.35;;;13.90;99.90;;;;;;6217110;23;20156;-81
2022/06/04 00:51:38;;;;;;;7.03;3.42;;;13.80;99.90;;;;;;6217811;23;20180;-81
2022/06/04 00:54:05;;;;;;;4.95;3.55;;;13.90;99.90;;;;;;6218405;23;20155;-81
2022/06/04 00:56:58;;;;;;;4.88;3.65;;;13.80;99.90;;;;;;6223677;23;20151;-81
2022/06/04 01:00:00;;;;;;;6.28;3.53;;;13.80;99.90;;;;;;6227452;23;20184;-81
2022/06/04 01:02:58;;;;;;;4.88;3.47;;;13.80;99.90;;;;;;6201271;23;20225;-81
2022/06/04 01:05:45;;;;;;;5.18;3.70;;;13.80;99.90;;;;;;6221785;23;20163;-81
2022/06/04 01:08:13;;;;;;;5.47;3.58;;;13.80;99.90;;;;;;6216255;23;20188;-81
2022/06/04 01:11:17;;;;;;;5.28;3.78;;;13.70;99.90;;;;;;6216184;23;20210;-81
2022/06/04 01:14:25;;;;;;;5.35;3.60;;;13.70;99.90;;;;;;6216126;23;20155;-81
2022/06/04 01:17:21;;;;;;;6.93;4.70;;;13.70;99.90;;;;;;6173801;23;20241;-81
2022/06/04 01:20:06;;;;;;;5.90;4.32;;;13.70;99.90;;;;;;6216720;23;20182;-81
2022/06/04 01:22:41;;;;;;;5.28;3.88;;;13.60;99.90;;;;;;6215879;23;20141;-82
2022/06/04 01:25:46;;;;;;;5.13;3.83;;;13.60;99.90;;;;;;6216139;23;20139;-80
2022/06/04 01:28:16;;;;;;;5.38;4.10;;;13.50;99.90;;;;;;6215953;23;20175;-81
2022/06/04 01:30:49;;;;;;;4.63;4.00;;;13.50;99.90;;;;;;6216047;23;20160;-82
2022/06/04 01:33:22;;;;;;;4.53;3.88;;;13.50;99.90;;;;;;6189130;23;20160;-81
2022/06/04 01:36:12;;;;;;;8.30;3.90;;;13.50;99.90;;;;;;6190188;23;20159;-81
2022/06/04 01:38:57;;;;;;;5.28;4.18;;;13.50;99.90;;;;;;6189314;23;20665;-81
2022/06/04 01:41:40;;;;;;;5.68;4.22;;;13.40;99.90;;;;;;6216103;23;20198;-81
2022/06/04 01:44:19;;;;;;;5.55;3.97;;;13.40;99.90;;;;;;6189691;23;20167;-81
2022/06/04 01:46:51;;;;;;;4.82;3.95;;;13.40;99.90;;;;;;6191330;23;20234;-81
2022/06/04 01:49:31;;;;;;;5.07;3.60;;;13.50;99.90;;;;;;6191323;23;20239;-81
2022/06/04 01:52:02;;;;;;;4.38;3.70;;;13.40;99.90;;;;;;6219030;23;20136;-81
2022/06/04 01:54:45;;;;;;;6.90;4.13;;;13.30;99.90;;;;;;6219944;23;20171;-81
2022/06/04 01:57:18;;;;;;;4.20;3.60;;;13.30;99.90;;;;;;6194626;23;20144;-82
2022/06/04 01:59:48;;;;;;;5.47;4.05;;;13.30;99.90;;;;;;6220062;23;20226;-82
2022/06/04 02:02:24;;;;;;;4.50;3.70;;;13.30;99.90;;;;;;6219253;23;20147;-81
2022/06/04 02:04:56;;;;;;;6.68;4.43;;;13.30;99.90;;;;;;6245021;23;20196;-82
2022/06/04 02:07:30;;;;;;;5.18;4.15;;;13.20;99.90;;;;;;6245031;23;20199;-81
2022/06/04 02:10:12;;;;;;;5.53;3.88;;;13.30;99.90;;;;;;6242305;23;20136;-82
2022/06/04 02:12:41;;;;;;;5.22;3.72;;;13.20;99.90;;;;;;6219540;23;20140;-82
2022/06/04 02:15:12;;;;;;;7.25;4.53;;;13.20;99.90;;;;;;6221729;23;20152;-79
2022/06/04 02:17:40;;;;;;;6.95;4.68;;;13.20;99.90;;;;;;6245059;23;20139;-93
2022/06/04 02:20:07;;;;;;;5.32;4.15;;;13.10;99.90;;;;;;6244866;23;20202;-81
2022/06/04 02:22:34;;;;;;;6.57;4.65;;;13.10;99.90;;;;;;6219613;23;20136;-83
2022/06/04 02:25:02;;;;;;;6.57;3.95;;;13.10;99.90;;;;;;6170130;23;20160;-81
2022/06/04 02:27:28;;;;;;;5.32;4.25;;;13.10;99.90;;;;;;6217224;23;20152;-81
2022/06/04 02:29:54;;;;;;;5.93;4.05;;;13.20;99.90;;;;;;6217044;23;20160;-81
2022/06/04 02:32:47;;;;;;;6.68;4.25;;;13.20;99.90;;;;;;6216756;23;20516;-81
2022/06/04 02:35:23;;;;;;;5.55;4.25;;;13.20;99.90;;;;;;6190657;23;20156;-81
2022/06/04 02:38:19;;;;;;;4.97;4.07;;;13.20;99.90;;;;;;6216757;23;20139;-81
2022/06/04 02:41:04;;;;;;;6.40;4.07;;;13.20;99.90;;;;;;6188971;23;20188;-81
2022/06/04 02:43:41;;;;;;;5.70;4.13;;;13.20;99.90;;;;;;6190513;23;20190;-81
2022/06/04 02:46:18;;;;;;;11.52;4.32;;;13.30;99.90;;;;;;6190325;23;20583;-81
2022/06/04 02:48:58;;;;;;;4.82;4.15;;;13.30;99.90;;;;;;6216596;23;20185;-82
2022/06/04 02:51:32;;;;;;;5.07;4.28;;;13.30;99.90;;;;;;6216893;23;20567;-81
2022/06/04 02:53:59;;;;;;;5.13;4.22;;;13.20;99.90;;;;;;6216933;23;20148;-81
2022/06/04 02:56:31;;;;;;;4.72;3.92;;;13.30;99.90;;;;;;6216060;23;20234;-81
2022/06/04 02:59:00;;;;;;;4.47;3.58;;;13.30;99.90;;;;;;6216473;23;20525;-82
2022/06/04 03:01:27;;;;;;;6.25;3.97;;;13.30;99.90;;;;;;6190457;23;20517;-82
2022/06/04 03:03:53;;;;;;;4.60;3.83;;;13.30;99.90;;;;;;6216775;23;20153;-81
2022/06/04 03:06:25;;;;;;;5.22;3.95;;;13.30;99.90;;;;;;6190469;23;20598;-82
2022/06/04 03:08:52;;;;;;;6.15;4.30;;;13.40;99.90;;;;;;6190441;23;20499;-82
2022/06/04 03:11:18;;;;;;;4.75;3.97;;;13.40;99.90;;;;;;6216834;23;20158;-82
2022/06/04 03:13:45;;;;;;;5.90;4.10;;;13.40;99.90;;;;;;6165398;23;20164;-85
2022/06/04 03:16:12;;;;;;;4.78;3.80;;;13.40;99.90;;;;;;6198410;23;20183;-81
2022/06/04 03:18:38;;;;;;;5.47;4.38;;;13.40;99.90;;;;;;6216546;23;20156;-81
2022/06/04 03:21:04;;;;;;;5.57;3.88;;;13.40;99.90;;;;;;6189836;23;20337;-82
2022/06/04 03:23:31;;;;;;;5.75;4.00;;;13.40;99.90;;;;;;6190153;23;20595;-81
2022/06/04 03:25:56;;;;;;;6.47;4.32;;;13.40;99.90;;;;;;6165197;23;20156;-82
2022/06/04 03:28:22;;;;;;;4.55;3.92;;;13.50;99.90;;;;;;6216434;23;20163;-81
2022/06/04 03:30:48;;;;;;;6.30;4.97;;;13.50;99.90;;;;;;6189862;23;20170;-82
2022/06/04 03:33:14;;;;;;;6.70;4.57;;;13.50;99.90;;;;;;6189866;23;20234;-81
2022/06/04 03:35:41;;;;;;;8.15;4.78;;;13.50;99.90;;;;;;6189834;23;20160;-81
2022/06/04 03:38:06;;;;;;;6.00;4.50;;;13.60;99.90;;;;;;6216458;23;20245;-81
2022/06/04 03:40:32;;;;;;;4.63;4.10;;;13.60;99.90;;;;;;6189909;23;20623;-82
2022/06/04 03:42:58;;;;;;;4.82;3.92;;;13.60;99.90;;;;;;6216037;23;20519;-82
2022/06/04 03:45:26;;;;;;;3.90;3.50;;;13.60;99.90;;;;;;6190091;23;20234;-82
2022/06/04 03:47:53;;;;;;;5.22;4.10;;;13.60;99.90;;;;;;6216316;23;20265;-82
2022/06/04 03:50:18;;;;;;;5.80;4.05;;;13.60;99.90;;;;;;6216481;23;20508;-82
2022/06/04 03:52:45;;;;;;;4.43;3.92;;;13.60;99.90;;;;;;6216431;23;20166;-82
2022/06/04 03:55:12;;;;;;;4.72;3.50;;;13.70;99.90;;;;;;6164903;23;20156;-82
2022/06/04 03:57:48;;;;;;;4.13;3.58;;;13.70;99.90;;;;;;6189989;23;20239;-82
2022/06/04 04:00:35;;;;;;;5.55;4.18;;;13.70;99.90;;;;;;6189739;23;20183;-83
2022/06/04 04:03:06;;;;;;;4.80;3.75;;;13.70;99.90;;;;;;6189710;23;20156;-83
2022/06/04 04:05:47;;;;;;;3.95;3.55;;;13.80;99.90;;;;;;6216050;23;20144;-82
2022/06/04 04:08:13;;;;;;;4.85;3.65;;;13.80;99.90;;;;;;6188727;23;20573;-82
2022/06/04 04:10:41;;;;;;;5.20;4.35;;;13.90;99.90;;;;;;6189321;23;20183;-82
2022/06/04 04:13:07;;;;;;;4.80;4.03;;;14.30;99.90;;;;;;6216064;23;20540;-83
2022/06/04 04:15:33;;;;;;;5.82;4.00;;;14.00;99.90;;;;;;6215942;23;20152;-82
2022/06/04 04:17:58;;;;;;;5.45;4.45;;;14.20;99.90;;;;;;6216066;23;20160;-83
2022/06/04 04:20:32;;;;;;;4.15;3.58;;;14.20;99.90;;;;;;6164849;23;20649;-83
2022/06/04 04:22:58;;;;;;;5.00;3.67;;;14.40;99.90;;;;;;6189504;23;20210;-83
2022/06/04 04:25:26;;;;;;;5.95;4.05;;;14.50;99.90;;;;;;6216481;23;20152;-82
2022/06/04 04:27:52;;;;;;;4.10;3.70;;;14.60;99.90;;;;;;6216296;23;20151;-89
2022/06/04 04:30:22;;;;;;;4.90;3.80;;;14.70;99.90;;;;;;6190243;23;20263;-82
2022/06/04 04:32:49;;;;;;;6.25;3.72;;;14.70;99.90;;;;;;6216616;23;20148;-82
2022/06/04 04:35:20;;;;;;;4.47;3.67;;;14.80;99.90;;;;;;6215830;23;20176;-81
2022/06/04 04:37:46;;;;;;;3.95;3.55;;;14.70;99.90;;;;;;6216128;23;20168;-82
2022/06/04 04:40:14;;;;;;;5.32;3.33;;;14.90;99.90;;;;;;6189193;23;20195;-83
2022/06/04 04:42:40;;;;;;;5.88;4.18;;;14.90;99.90;;;;;;6189369;23;20210;-83
2022/06/04 04:45:09;;;;;;;6.10;3.88;;;15.00;99.90;;;;;;6215718;23;20184;-82
2022/06/04 04:47:36;;;;;;;4.47;3.80;;;15.00;99.90;;;;;;6215979;23;20147;-82
2022/06/04 04:50:08;;;;;;;4.60;3.88;;;15.00;99.90;;;;;;6215778;23;20239;-82
2022/06/04 04:52:34;;;;;;;5.28;3.63;;;15.10;99.90;;;;;;6215618;23;20220;-83
2022/06/04 04:55:00;;;;;;;4.88;4.00;;;15.10;99.90;;;;;;6215845;23;20226;-83
2022/06/04 04:57:25;;;;;;;3.92;3.25;;;15.20;99.90;;;;;;6215908;23;20184;-82
2022/06/04 04:59:51;;;;;;;4.55;3.55;;;15.20;99.90;;;;;;6189118;23;20279;-83
2022/06/04 05:02:17;;;;;;;3.70;3.30;;;;;;;;;;6189206;23;20175;-82
2022/06/04 05:04:42;;;;;;;3.72;3.33;;;15.40;99.90;;;;;;6214598;23;20159;-84
2022/06/04 05:07:11;;;;;;;3.95;3.28;;;15.60;99.90;;;;;;6214090;23;20234;-84
2022/06/04 05:09:39;;;;;;;3.53;3.03;;;15.70;99.90;;;;;;6214683;23;20160;-83
2022/06/04 05:12:06;;;;;;;4.78;3.42;;;15.90;99.90;;;;;;6188807;23;20678;-83
2022/06/04 05:14:32;;;;;;;3.63;3.30;;;16.00;99.90;;;;;;6194250;23;20155;-83
2022/06/04 05:16:57;;;;;;;6.13;3.25;;;16.20;99.90;;;;;;6215766;23;20155;-88
2022/06/04 05:19:23;;;;;;;5.65;3.45;;;16.30;99.90;;;;;;6214740;23;20270;-83
2022/06/04 05:21:53;;;;;;;5.97;4.22;;;16.50;99.90;;;;;;6189504;23;20192;-83
2022/06/04 05:24:28;;;;;;;6.10;3.75;;;16.60;99.90;;;;;;6216398;23;20203;-85
2022/06/04 05:26:55;;;;;;;3.35;3.05;;;16.70;99.90;;;;;;6216690;23;20634;-83
2022/06/04 05:29:21;;;;;;;4.45;3.28;;;16.70;99.90;;;;;;6216344;23;20152;-83
2022/06/04 05:31:47;;;;;;;3.70;2.90;;;16.80;99.90;;;;;;6189871;23;20176;-83
2022/06/04 05:34:15;;;;;;;3.35;2.78;;;16.80;99.90;;;;;;6216553;23;20230;-83
2022/06/04 05:36:41;;;;;;;4.25;3.17;;;16.80;99.90;;;;;;6217015;23;20152;-84
2022/06/04 05:39:08;;;;;;;3.00;2.53;;;16.80;99.90;;;;;;6217094;23;20187;-83
2022/06/04 05:41:34;;;;;;;3.28;2.95;;;16.80;99.90;;;;;;6217127;23;20155;-84
2022/06/04 05:44:00;;;;;;;3.78;3.22;;;16.80;99.90;;;;;;6165722;23;20184;-89
2022/06/04 05:46:26;;;;;;;4.43;3.15;;;16.80;99.90;;;;;;6191054;23;20159;-83
2022/06/04 05:48:52;;;;;;;3.83;3.42;;;16.90;99.90;;;;;;6217209;23;20156;-81
2022/06/04 05:51:24;;;;;;;2.78;2.53;;;16.90;99.90;;;;;;6217060;23;20159;-84
2022/06/04 05:53:51;;;;;;;3.65;3.00;;;17.00;99.90;;;;;;6191010;23;20243;-84
2022/06/04 05:56:23;;;;;;;3.13;2.83;;;17.00;99.90;;;;;;6190537;23;20160;-85
2022/06/04 05:58:51;;;;;;;3.22;2.92;;;17.10;99.90;;;;;;6216940;23;20152;-83
2022/06/04 06:01:18;;;;;;;3.08;2.55;;;17.20;99.90;;;;;;6216582;23;20231;-85
2022/06/04 06:03:44;;;;;;;3.20;2.83;;;17.20;99.90;;;;;;6216212;23;20148;-82
2022/06/04 06:06:17;;;;;;;3.42;3.13;;;17.30;99.90;;;;;;6190143;23;20198;-81
2022/06/04 06:08:43;;;;;;;4.82;2.88;;;17.30;99.90;;;;;;6216956;23;20234;-83
2022/06/04 06:11:11;;;;;;;2.83;2.63;;;17.40;99.90;;;;;;6165498;23;20591;-82
2022/06/04 06:13:38;;;;;;;3.80;2.78;;;17.40;99.90;;;;;;6189682;23;20595;-83
2022/06/04 06:16:15;;;;;;;3.53;3.00;;;17.40;99.90;;;;;;6189962;23;20184;-91
2022/06/04 06:18:41;;;;;;;2.63;2.42;;;17.40;99.90;;;;;;6189883;23;20152;-83
2022/06/04 06:21:09;;;;;;;2.83;2.63;;;17.50;99.90;;;;;;6216452;23;20233;-83
2022/06/04 06:23:36;;;;;;;3.10;2.78;;;17.50;99.90;;;;;;6216912;23;20175;-83
2022/06/04 06:26:13;;;;;;;4.00;2.97;;;17.50;99.90;;;;;;6218096;23;20242;-84
2022/06/04 06:28:41;;;;;;;4.85;3.10;;;17.50;99.90;;;;;;6193476;23;20175;-84
2022/06/04 06:31:08;;;;;;;3.17;2.78;;;17.50;99.90;;;;;;6191125;23;20170;-86
2022/06/04 06:33:34;;;;;;;3.47;2.85;;;17.50;99.90;;;;;;6218207;23;20662;-84
2022/06/04 06:36:04;;;;;;;4.25;2.80;;;17.50;99.90;;;;;;6218165;23;20175;-85
2022/06/04 06:38:30;;;;;;;3.45;3.13;;;17.50;99.90;;;;;;6218037;23;20158;-86
2022/06/04 06:40:57;;;;;;;4.32;3.25;;;17.60;99.90;;;;;;6190877;23;20237;-87
2022/06/04 06:43:58;;;;;;;3.58;2.83;;;17.70;99.90;;;;;;6217929;23;20186;-83
2022/06/04 06:46:25;;;;;;;3.92;2.72;;;17.70;99.90;;;;;;6211839;23;20191;-83
2022/06/04 06:48:58;;;;;;;3.60;2.92;;;17.70;99.90;;;;;;6219890;23;20164;-84
2022/06/04 06:51:36;;;;;;;3.85;3.40;;;17.80;99.90;;;;;;6191142;23;20155;-85
2022/06/04 06:54:03;;;;;;;4.22;2.83;;;17.80;99.90;;;;;;6217467;23;20517;-84
2022/06/04 06:56:31;;;;;;;10.00;3.13;;;17.90;99.90;;;;;;6217132;23;20309;-85
2022/06/04 06:58:59;;;;;;;2.90;2.70;;;18.00;99.90;;;;;;6216641;23;20529;-84
2022/06/04 07:01:26;;;;;;;3.25;2.95;;;18.00;99.90;;;;;;6216732;23;20227;-84
2022/06/04 07:03:52;;;;;;;5.00;3.00;;;18.00;99.90;;;;;;6190450;23;20160;-84
2022/06/04 07:06:35;;;;;;;2.95;2.50;;;18.20;99.90;;;;;;6216650;23;20148;-84
2022/06/04 07:09:07;;;;;;;4.13;3.00;;;18.30;99.90;;;;;;6217189;23;20159;-84
2022/06/04 07:11:33;;;;;;;4.53;3.45;;;18.40;99.90;;;;;;6217443;23;20136;-84
2022/06/04 07:13:59;;;;;;;3.28;2.67;;;18.50;99.90;;;;;;6217803;23;20159;-85
2022/06/04 07:16:25;;;;;;;3.75;2.90;;;18.60;99.90;;;;;;6190626;23;20156;-84
2022/06/04 07:18:51;;;;;;;4.25;3.17;;;18.70;99.90;;;;;;6217125;23;20178;-85
2022/06/04 07:21:17;;;;;;;5.70;2.58;;;18.80;99.90;;;;;;6229344;23;20156;-84
2022/06/04 07:23:42;;;;;;;5.68;2.60;;;18.90;99.90;;;;;;6206096;23;20163;-85
2022/06/04 07:26:08;;;;;;;3.20;2.45;;;19.00;99.90;;;;;;6206106;23;20156;-84
2022/06/04 07:28:36;;;;;;;3.08;2.28;;;19.10;99.90;;;;;;6205560;23;20152;-85
2022/06/04 07:31:04;;;;;;;3.40;2.78;;;19.20;99.90;;;;;;6225231;23;20170;-84
2022/06/04 07:33:30;;;;;;;3.75;2.88;;;19.30;99.90;;;;;;6190605;23;20610;-84
2022/06/04 07:35:55;;;;;;;2.88;2.55;;;19.30;99.90;;;;;;6216814;23;20152;-84
2022/06/04 07:38:21;;;;;;;3.10;2.80;;;19.40;99.90;;;;;;6217392;23;20487;-85
2022/06/04 07:40:46;;;;;;;6.13;2.30;;;19.50;99.90;;;;;;6216803;23;20255;-84
2022/06/04 07:43:13;;;;;;;4.93;2.92;;;19.50;99.90;;;;;;6164920;23;20164;-84
2022/06/04 07:45:39;;;;;;;3.10;2.53;;;19.60;99.90;;;;;;6216379;23;20148;-84
2022/06/04 07:48:06;;;;;;;3.47;2.50;;;19.60;99.90;;;;;;6216429;23;20176;-84
2022/06/04 07:50:33;;;;;;;4.10;2.50;;;19.60;99.90;;;;;;6216625;23;20160;-85
2022/06/04 07:52:59;;;;;;;3.72;2.70;;;19.60;99.90;;;;;;6215856;23;20191;-84
2022/06/04 07:55:26;;;;;;;2.80;2.22;;;19.60;99.90;;;;;;6215829;23;20148;-84
2022/06/04 07:57:52;;;;;;;3.00;2.28;;;19.60;99.90;;;;;;6216118;23;20152;-84
2022/06/04 08:00:23;;;;;;;4.35;2.40;;;19.70;99.90;;;;;;6189432;23;20184;-85
2022/06/04 08:02:49;;;;;;;2.55;2.35;;;19.70;99.90;;;;;;6166168;23;20575;-85
2022/06/04 08:05:15;;;;;;;2.90;2.60;;;19.70;99.90;;;;;;6216781;23;20198;-84
2022/06/04 08:07:41;;;;;;;2.40;2.20;;;19.70;99.90;;;;;;6216150;23;20219;-84
2022/06/04 08:10:08;;;;;;;2.88;2.58;;;19.80;99.90;;;;;;6224880;23;20183;-85
2022/06/04 08:12:40;;;;;;;2.58;2.30;;;19.90;99.90;;;;;;6200502;23;20164;-85
2022/06/04 08:15:06;;;;;;;3.20;2.35;;;19.90;99.90;;;;;;6226505;23;20172;-84
2022/06/04 08:17:32;;;;;;;12.60;4.00;;;19.80;99.90;;;;;;6225064;23;20155;-85
2022/06/04 08:19:58;;;;;;;3.75;2.72;;;19.80;99.90;;;;;;6215044;23;20178;-85
2022/06/04 08:22:24;;;;;;;3.10;2.50;;;19.70;99.90;;;;;;6243874;23;20156;-95
2022/06/04 08:24:49;;;;;;;2.90;2.17;;;20.10;99.90;;;;;;6243662;23;20179;-86
2022/06/04 08:27:16;;;;;;;3.50;2.80;;;19.70;99.90;;;;;;6243982;23;20159;-85
2022/06/04 08:29:41;;;;;;;3.30;2.28;;;19.60;99.90;;;;;;6230464;23;20179;-85
2022/06/04 08:32:07;;;;;;;3.88;2.63;;;19.50;99.90;;;;;;6194135;23;20250;-85
2022/06/04 08:34:33;;;;;;;4.15;2.72;;;19.40;99.90;;;;;;6207143;23;20156;-90
2022/06/04 08:37:00;;;;;;;3.78;2.60;;;19.30;99.90;;;;;;6215672;23;20163;-86
2022/06/04 08:39:27;;;;;;;5.60;2.63;;;19.30;99.90;;;;;;6206185;23;20196;-88
2022/06/04 08:42:10;;;;;;;3.33;2.63;;;19.20;99.90;;;;;;6206276;23;20239;-85
2022/06/04 08:44:43;;;;;;;3.75;2.70;;;19.20;99.90;;;;;;6192614;23;20156;-85
2022/06/04 08:47:18;;;;;;;4.43;3.80;;;19.10;99.90;;;;;;6217905;23;20152;-86
2022/06/04 08:50:01;;;;;;;3.78;3.05;;;19.10;99.90;;;;;;6218829;23;20186;-85
2022/06/04 08:52:41;;;;;;;4.10;2.90;;;19.10;99.90;;;;;;6190800;23;20159;-85
2022/06/04 08:58:47;;;;;;;4.05;3.15;;;19.00;99.90;;;;;;6215843;23;20254;-85
2022/06/04 09:01:23;;;;;;;3.85;3.00;;;18.80;99.90;;;;;;6215133;23;20191;-86
2022/06/04 09:04:21;;;;;;;4.63;3.45;;;18.60;99.90;;;;;;6215604;23;20466;-86
2022/06/04 09:07:10;;;;;;;5.07;3.70;;;18.50;99.90;;;;;;6159589;23;20210;-87
2022/06/04 09:09:46;;;;;;;9.95;4.68;;;18.40;99.90;;;;;;6217037;23;20162;-84
2022/06/04 09:12:14;;;;;;;4.97;3.30;;;18.30;99.90;;;;;;6216470;23;20142;-85
2022/06/04 09:14:50;;;;;;;5.22;4.00;;;18.30;99.90;;;;;;6216306;23;20159;-86
2022/06/04 09:17:37;;;;;;;4.10;3.60;;;18.40;99.90;;;;;;6216491;23;20585;-85
2022/06/04 09:20:17;;;;;;;5.65;3.97;;;18.40;99.90;;;;;;6215474;23;20191;-87
2022/06/04 09:22:45;;;;;;;4.32;3.83;;;18.50;99.90;;;;;;6190101;23;20148;-86
2022/06/04 09:25:16;;;;;;;5.45;4.43;;;18.60;99.90;;;;;;6216154;23;20152;-87
2022/06/04 09:28:12;;;;;;;5.30;4.40;;;18.70;99.90;;;;;;6215307;23;20195;-86
2022/06/04 09:30:45;;;;;;;6.95;4.85;;;18.70;99.90;;;;;;6215202;23;20231;-86
2022/06/04 09:33:48;;;;;;;5.40;4.18;;;18.80;99.90;;;;;;6215874;23;20140;-85
2022/06/04 09:36:22;;;;;;;5.78;4.30;;;18.80;99.90;;;;;;6214966;23;20156;-89
2022/06/04 09:38:53;;;;;;;15.60;5.20;;;18.80;99.90;;;;;;6188935;23;20210;-85
2022/06/04 09:41:21;;;;;;;6.40;4.63;;;18.90;99.90;;;;;;6215287;23;20600;-84
2022/06/04 09:43:59;;;;;;;6.45;3.83;;;18.80;99.90;;;;;;6215292;23;20160;-84
2022/06/04 09:46:25;;;;;;;7.07;4.43;;;18.80;99.90;;;;;;6189009;23;20479;-83
2022/06/04 09:48:53;;;;;;;5.50;4.20;;;18.90;99.90;;;;;;6189084;23;20159;-84
2022/06/04 09:51:25;;;;;;;4.65;3.80;;;18.70;99.90;;;;;;6164186;23;20170;-84
2022/06/04 09:53:54;;;;;;;4.57;3.78;;;18.70;99.90;;;;;;6214953;23;20158;-84
2022/06/04 09:56:26;;;;;;;5.55;4.53;;;18.70;99.90;;;;;;6188771;23;20243;-84
2022/06/04 09:58:51;;;;;;;6.32;3.97;;;18.70;99.90;;;;;;6215622;23;20148;-83
2022/06/04 10:01:18;;;;;;;4.85;3.80;;;18.70;99.90;;;;;;6215496;23;20167;-85
2022/06/04 10:03:56;;;;;;;5.38;3.97;;;18.70;99.90;;;;;;6189131;23;20652;-85
2022/06/04 10:06:25;;;;;;;4.50;3.55;;;18.60;99.90;;;;;;6190459;23;20183;-85
2022/06/04 10:11:49;;;;;;;4.15;3.50;;;18.50;99.90;;;;;;6216213;23;20148;-86
2022/06/04 10:14:15;;;;;;;5.05;3.22;;;18.60;99.90;;;;;;6216488;23;20572;-85
2022/06/04 10:16:45;;;;;;;4.50;3.30;;;18.50;99.90;;;;;;6165347;23;20239;-83
2022/06/04 10:19:18;;;;;;;5.22;3.13;;;18.50;99.90;;;;;;6216911;23;20237;-86
2022/06/04 10:21:47;;;;;;;7.18;3.33;;;18.30;99.90;;;;;;6216686;23;20144;-87
2022/06/04 10:24:23;;;;;;;4.00;2.90;;;18.30;99.90;;;;;;6216247;23;20227;-84
2022/06/04 10:27:15;;;;;;;4.07;2.95;;;18.20;99.90;;;;;;6216527;23;20148;-85
2022/06/04 10:29:59;;;;;;;3.78;3.03;;;17.00;99.90;;;;;;6189671;23;20543;-85
2022/06/04 10:32:46;;;;;;;3.60;3.13;;;18.20;99.90;;;;;;6189537;23;20156;-86
2022/06/04 10:35:53;;;;;;;3.10;2.80;;;18.30;99.90;;;;;;6216657;23;20167;-84
2022/06/04 10:38:47;;;;;;;3.20;2.63;;;18.20;99.90;;;;;;6216990;23;20159;-85
2022/06/04 10:41:26;;;;;;;3.70;2.88;;;18.20;99.90;;;;;;6190562;23;20202;-84
2022/06/04 10:44:08;;;;;;;4.03;2.92;;;18.00;99.90;;;;;;6217056;23;20481;-85
2022/06/04 10:46:55;;;;;;;4.05;2.92;;;18.00;99.90;;;;;;6190451;23;20653;-85
2022/06/04 10:49:28;;;;;;;4.88;3.75;;;18.00;99.90;;;;;;6216825;23;20186;-85
2022/06/04 10:52:34;;;;;;;4.53;3.50;;;18.00;99.90;;;;;;6216735;23;20140;-86
2022/06/04 10:55:24;;;;;;;4.20;3.63;;;18.00;99.90;;;;;;6189944;23;20156;-84
2022/06/04 10:58:17;;;;;;;3.63;3.33;;;17.90;99.90;;;;;;6216934;23;20180;-84
2022/06/04 11:00:48;;;;;;;4.97;3.90;;;17.90;99.90;;;;;;6216454;23;20183;-83
2022/06/04 11:03:28;;;;;;;3.92;3.25;;;17.90;99.90;;;;;;6216589;23;20167;-83
2022/06/04 11:06:04;;;;;;;4.47;3.83;;;18.00;99.90;;;;;;6216706;23;20189;-84
2022/06/04 11:08:31;;;;;;;4.05;3.25;;;18.00;99.90;;;;;;6216407;23;20191;-84
2022/06/04 11:11:06;;;;;;;4.70;3.80;;;17.90;99.90;;;;;;6219608;23;20162;-84
2022/06/04 11:13:41;;;;;;;6.40;3.22;;;17.90;99.90;;;;;;6216224;23;20198;-84
2022/06/04 11:16:27;;;;;;;4.47;3.47;;;17.90;99.90;;;;;;6189829;23;20156;-83
2022/06/04 11:19:17;;;;;;;5.55;3.53;;;17.80;99.90;;;;;;6216226;23;20170;-85
2022/06/04 11:21:51;;;;;;;4.38;3.80;;;17.80;99.90;;;;;;6189537;23;20214;-84
2022/06/04 11:24:18;;;;;;;4.45;3.65;;;17.80;99.90;;;;;;6189849;23;20213;-83
2022/06/04 11:26:57;;;;;;;4.50;3.17;;;17.70;99.90;;;;;;6215684;23;20298;-84
2022/06/04 11:29:23;;;;;;;5.07;3.53;;;17.60;99.90;;;;;;6216270;23;20148;-84
2022/06/04 11:32:06;;;;;;;4.82;3.67;;;17.60;99.90;;;;;;6215842;23;20458;-84
2022/06/04 11:35:06;;;;;;;5.93;4.72;;;17.50;99.90;;;;;;6215571;23;20598;-84
2022/06/04 11:37:58;;;;;;;4.35;3.35;;;17.50;99.90;;;;;;6189169;23;20603;-84
2022/06/04 11:40:37;;;;;;;9.15;3.55;;;17.40;99.90;;;;;;6216788;23;20176;-84
2022/06/04 11:43:41;;;;;;;4.78;3.72;;;17.30;99.90;;;;;;6216230;23;20147;-83
2022/06/04 11:46:24;;;;;;;4.63;4.15;;;17.20;99.90;;;;;;6189013;23;20159;-84
2022/06/04 11:48:52;;;;;;;5.40;3.75;;;17.00;99.90;;;;;;6189247;23;20179;-83
2022/06/04 11:51:55;;;;;;;4.30;3.42;;;17.00;99.90;;;;;;6215657;23;20193;-85
2022/06/04 11:54:45;;;;;;;5.55;3.88;;;16.90;99.90;;;;;;6215590;23;20148;-83
2022/06/04 11:57:33;;;;;;;4.90;3.95;;;16.80;99.90;;;;;;6189371;23;20235;-83
2022/06/04 12:00:21;;;;;;;6.00;4.45;;;16.80;99.90;;;;;;6190072;23;20551;-83
2022/06/04 12:03:14;;;;;;;5.70;3.92;;;16.70;99.90;;;;;;6191858;23;20572;-83
2022/06/04 12:05:44;;;;;;;4.93;4.13;;;16.70;99.90;;;;;;6189992;23;20156;-83
2022/06/04 12:08:14;;;;;;;6.05;4.65;;;16.70;99.90;;;;;;6191766;23;20200;-84
2022/06/04 12:10:58;;;;;;;6.75;4.57;;;16.60;99.90;;;;;;6193730;23;20163;-83
2022/06/04 12:14:00;;;;;;;7.82;5.50;;;16.70;99.90;;;;;;6219939;23;20215;-84
2022/06/04 12:16:36;;;;;;;6.75;4.45;;;15.10;99.90;;;;;;6217303;23;20191;-84
2022/06/04 12:24:15;;;;;;;8.18;5.03;;;16.60;99.90;;;;;;6195019;23;20166;-82
2022/06/04 12:25:13;;;;;;;6.95;4.97;;;16.80;99.90;;;;;;6233594;23;20707;-83
2022/06/04 12:28:00;;;;;;;7.53;4.20;;;16.70;99.90;;;;;;6220898;23;20152;-83
2022/06/04 12:30:43;;;;;;;5.75;4.30;;;16.70;99.90;;;;;;6216306;23;20155;-85
2022/06/04 12:33:34;;;;;;;6.43;4.53;;;16.60;99.90;;;;;;6215359;23;20436;-84
2022/06/04 12:36:09;;;;;;;5.82;4.38;;;16.60;99.90;;;;;;6189067;23;20158;-83
2022/06/04 12:38:40;;;;;;;6.95;4.90;;;16.50;99.90;;;;;;6189325;23;20262;-83
2022/06/04 12:41:19;;;;;;;5.93;4.30;;;16.60;99.90;;;;;;6216009;23;20172;-85
2022/06/04 12:43:48;;;;;;;6.60;5.07;;;16.50;99.90;;;;;;6216415;23;20163;-83
2022/06/04 12:46:33;;;;;;;7.57;4.85;;;16.50;99.90;;;;;;6189495;23;20167;-83
2022/06/04 12:49:32;;;;;;;7.35;4.68;;;16.50;99.90;;;;;;6216047;23;20135;-82
2022/06/04 12:52:06;;;;;;;6.10;4.70;;;16.50;99.90;;;;;;6215408;23;20178;-84
2022/06/04 12:54:57;;;;;;;7.82;5.60;;;16.50;99.90;;;;;;6188567;23;20152;-82
2022/06/04 12:57:44;;;;;;;7.25;5.07;;;16.50;99.90;;;;;;6215315;23;20137;-84
2022/06/04 13:00:18;;;;;;;7.28;4.85;;;16.40;99.90;;;;;;6214679;23;20270;-82
2022/06/04 13:03:06;;;;;;;6.40;5.18;;;16.50;99.90;;;;;;6215171;23;20621;-83
2022/06/04 13:05:33;;;;;;;6.82;5.40;;;16.50;99.90;;;;;;6214760;23;20152;-82
2022/06/04 13:08:07;;;;;;;7.53;5.28;;;16.50;99.90;;;;;;6187886;23;20199;-83
2022/06/04 13:11:00;;;;;;;6.30;4.95;;;16.40;99.90;;;;;;6188366;23;20160;-83
2022/06/04 13:14:10;;;;;;;7.72;6.13;;;16.40;99.90;;;;;;6215378;23;20143;-85
2022/06/04 13:16:52;;;;;;;6.05;4.75;;;16.50;99.90;;;;;;6093243;23;20163;-83
2022/06/04 13:19:47;;;;;;;6.63;4.97;;;16.40;99.90;;;;;;6210033;23;20622;-83
2022/06/04 13:22:28;;;;;;;7.00;4.82;;;16.40;99.90;;;;;;6182633;23;20163;-83
2022/06/04 13:24:56;;;;;;;6.72;5.18;;;16.30;99.90;;;;;;6188692;23;20222;-88
2022/06/04 13:27:41;;;;;;;7.70;5.18;;;16.30;99.90;;;;;;6164093;23;20152;-82
2022/06/04 13:30:15;;;;;;;8.25;5.63;;;16.40;99.90;;;;;;6215288;23;20148;-83
2022/06/04 13:32:40;;;;;;;8.85;5.45;;;16.30;99.90;;;;;;6188561;23;20156;-84
2022/06/04 13:35:07;;;;;;;9.35;6.07;;;16.40;99.90;;;;;;6188686;23;20295;-86
2022/06/04 13:37:35;;;;;;;8.13;5.70;;;16.30;99.90;;;;;;6215216;23;20156;-84